createdAt,value
2023-01-19T00:00:32.226Z,-4.21
2023-01-19T00:02:35.177Z,-3.54
2023-01-19T00:04:37.944Z,-4.17
2023-01-19T00:06:40.765Z,-4.05
2023-01-19T00:08:45.936Z,-3.65
2023-01-19T00:10:51.042Z,-3.76
2023-01-19T00:12:53.768Z,-4.30
2023-01-19T00:14:56.510Z,-3.68
2023-01-19T00:16:59.594Z,-3.72
2023-01-19T00:19:02.647Z,-3.77
2023-01-19T00:21:05.584Z,-3.62
2023-01-19T00:23:09.511Z,-3.63
2023-01-19T00:25:13.645Z,-3.68
2023-01-19T00:27:16.404Z,-3.49
2023-01-19T00:29:20.333Z,-3.58
2023-01-19T00:31:23.396Z,-3.51
2023-01-19T00:33:26.239Z,-3.51
2023-01-19T00:35:29.712Z,-3.92
2023-01-19T00:37:32.507Z,-3.78
2023-01-19T00:39:35.460Z,-3.54
2023-01-19T00:41:57.252Z,-3.74
2023-01-19T00:44:00.765Z,-3.52
2023-01-19T00:46:03.532Z,-3.52
2023-01-19T00:48:07.373Z,-3.50
2023-01-19T00:50:12.544Z,-3.67
2023-01-19T00:52:15.233Z,-3.61
2023-01-19T00:54:18.190Z,-3.77
2023-01-19T00:56:20.886Z,-3.72
2023-01-19T00:58:24.878Z,-3.69
2023-01-19T01:00:27.696Z,-3.76
2023-01-19T01:02:30.502Z,-3.82
2023-01-19T01:04:33.381Z,-3.88
2023-01-19T01:06:36.082Z,-3.88
2023-01-19T01:08:38.724Z,-4.10
2023-01-19T01:10:41.397Z,-3.96
2023-01-19T01:12:56.304Z,-3.84
2023-01-19T01:15:03.255Z,-3.89
2023-01-19T01:17:05.929Z,-3.81
2023-01-19T01:19:08.733Z,-4.02
2023-01-19T01:21:13.583Z,-4.00
2023-01-19T01:23:16.330Z,-4.34
2023-01-19T01:25:22.475Z,-4.09
2023-01-19T01:27:25.237Z,-3.93
2023-01-19T01:29:28.012Z,-3.81
2023-01-19T01:31:32.188Z,-3.95
2023-01-19T01:33:41.011Z,-3.73
2023-01-19T01:35:44.597Z,-4.13
2023-01-19T01:37:47.318Z,-3.67
2023-01-19T01:39:49.986Z,-3.70
2023-01-19T01:41:52.692Z,-3.67
2023-01-19T01:44:01.704Z,-3.74
2023-01-19T01:46:04.638Z,-3.70
2023-01-19T01:48:13.307Z,-3.78
2023-01-19T01:50:19.155Z,-3.77
2023-01-19T01:52:26.382Z,-3.85
2023-01-19T01:54:33.002Z,-3.73
2023-01-19T01:56:38.518Z,-3.73
2023-01-19T01:58:42.064Z,-3.69
2023-01-19T02:01:02.649Z,-3.71
2023-01-19T02:03:05.521Z,-3.76
2023-01-19T02:05:12.503Z,-4.17
2023-01-19T02:07:39.218Z,-3.94
2023-01-19T02:09:59.668Z,-3.90
2023-01-19T02:12:20.095Z,-4.10
2023-01-19T02:14:22.870Z,-4.15
2023-01-19T02:16:25.735Z,-4.06
2023-01-19T02:18:30.354Z,-4.21
2023-01-19T02:20:37.569Z,-4.68
2023-01-19T02:22:48.668Z,-4.21
2023-01-19T02:24:52.981Z,-3.92
2023-01-19T02:26:57.209Z,-3.85
2023-01-19T02:29:01.937Z,-3.79
2023-01-19T02:31:04.905Z,-3.73
2023-01-19T02:33:07.842Z,-3.74
2023-01-19T02:35:11.789Z,-3.73
2023-01-19T02:37:18.447Z,-3.73
2023-01-19T02:39:24.926Z,-3.76
2023-01-19T02:41:32.438Z,-3.74
2023-01-19T02:43:37.127Z,-3.81
2023-01-19T02:45:40.516Z,-4.18
2023-01-19T02:47:46.122Z,-4.07
2023-01-19T02:49:56.176Z,-4.67
2023-01-19T02:52:01.019Z,-4.15
2023-01-19T02:54:31.568Z,-4.22
2023-01-19T02:56:50.932Z,-4.37
2023-01-19T02:59:02.405Z,-4.22
2023-01-19T03:01:14.115Z,-4.21
2023-01-19T03:03:30.597Z,-4.46
2023-01-19T03:05:49.284Z,-4.29
2023-01-19T03:08:00.142Z,-4.19
2023-01-19T03:10:08.255Z,-4.18
2023-01-19T03:12:20.944Z,-4.01
2023-01-19T03:14:29.600Z,-3.90
2023-01-19T03:16:40.764Z,-4.19
2023-01-19T03:18:47.187Z,-4.54
2023-01-19T03:20:53.495Z,-3.90
2023-01-19T03:23:02.891Z,-3.88
2023-01-19T03:25:07.856Z,-3.88
2023-01-19T03:27:15.851Z,-3.94
2023-01-19T03:29:20.748Z,-4.07
2023-01-19T03:31:27.309Z,-4.05
2023-01-19T03:33:34.376Z,-4.72
2023-01-19T03:35:40.969Z,-3.92
2023-01-19T03:37:46.518Z,-4.00
2023-01-19T03:39:49.279Z,-3.77
2023-01-19T03:41:55.949Z,-3.81
2023-01-19T03:44:00.411Z,-3.76
2023-01-19T03:46:04.477Z,-3.71
2023-01-19T03:48:08.442Z,-3.65
2023-01-19T03:50:19.334Z,-3.63
2023-01-19T03:52:29.125Z,-4.17
2023-01-19T03:54:32.854Z,-4.11
2023-01-19T03:56:35.599Z,-4.75
2023-01-19T03:58:38.311Z,-4.03
2023-01-19T04:00:42.559Z,-3.93
2023-01-19T04:02:45.285Z,-3.84
2023-01-19T04:04:48.021Z,-3.77
2023-01-19T04:06:50.773Z,-3.77
2023-01-19T04:08:53.905Z,-3.80
2023-01-19T04:10:58.385Z,-4.40
2023-01-19T04:13:02.555Z,-3.83
2023-01-19T04:15:06.517Z,-3.83
2023-01-19T04:17:10.617Z,-4.05
2023-01-19T04:19:13.421Z,-4.57
2023-01-19T04:21:16.558Z,-4.43
2023-01-19T04:23:19.255Z,-4.24
2023-01-19T04:25:22.381Z,-4.13
2023-01-19T04:27:26.043Z,-4.04
2023-01-19T04:29:28.738Z,-4.00
2023-01-19T04:31:31.520Z,-3.91
2023-01-19T04:33:36.291Z,-3.90
2023-01-19T04:35:38.973Z,-3.81
2023-01-19T04:37:41.677Z,-3.80
2023-01-19T04:39:44.629Z,-3.77
2023-01-19T04:41:47.552Z,-3.77
2023-01-19T04:43:50.277Z,-3.80
2023-01-19T04:45:53.143Z,-3.81
2023-01-19T04:47:55.842Z,-3.77
2023-01-19T04:49:59.886Z,-3.83
2023-01-19T04:52:02.615Z,-3.85
2023-01-19T04:54:05.344Z,-3.93
2023-01-19T04:56:08.431Z,-4.13
2023-01-19T04:58:11.176Z,-4.66
2023-01-19T05:00:14.677Z,-4.72
2023-01-19T05:02:17.628Z,-4.77
2023-01-19T05:04:22.355Z,-4.56
2023-01-19T05:06:26.508Z,-5.08
2023-01-19T05:08:29.244Z,-5.25
2023-01-19T05:10:31.953Z,-4.95
2023-01-19T05:12:34.946Z,-4.94
2023-01-19T05:14:37.729Z,-5.29
2023-01-19T05:16:40.438Z,-5.14
2023-01-19T05:18:43.158Z,-5.03
2023-01-19T05:20:45.843Z,-5.36
2023-01-19T05:22:53.758Z,-5.29
2023-01-19T05:24:56.492Z,-5.15
2023-01-19T05:26:59.315Z,-5.18
2023-01-19T05:29:01.987Z,-5.78
2023-01-19T05:31:04.983Z,-4.72
2023-01-19T05:33:07.817Z,-4.64
2023-01-19T05:35:11.237Z,-4.86
2023-01-19T05:37:14.037Z,-4.70
2023-01-19T05:39:18.284Z,-4.47
2023-01-19T05:41:21.013Z,-4.37
2023-01-19T05:43:25.239Z,-4.32
2023-01-19T05:45:28.280Z,-4.27
2023-01-19T05:47:31.396Z,-4.77
2023-01-19T05:49:35.374Z,-4.28
2023-01-19T05:51:38.945Z,-4.18
2023-01-19T05:53:41.744Z,-4.13
2023-01-19T05:55:45.795Z,-4.10
2023-01-19T05:57:48.642Z,-4.21
2023-01-19T05:59:51.383Z,-4.30
2023-01-19T06:01:54.942Z,-4.25
2023-01-19T06:03:58.200Z,-4.16
2023-01-19T06:06:01.620Z,-4.15
2023-01-19T06:08:04.361Z,-4.08
2023-01-19T06:10:08.433Z,-4.11
2023-01-19T06:12:12.523Z,-4.14
2023-01-19T06:14:15.616Z,-4.18
2023-01-19T06:16:18.484Z,-4.15
2023-01-19T06:18:21.407Z,-4.22
2023-01-19T06:20:24.147Z,-4.66
2023-01-19T06:22:26.863Z,-4.64
2023-01-19T06:24:29.674Z,-4.42
2023-01-19T06:26:32.454Z,-4.83
2023-01-19T06:28:36.538Z,-4.37
2023-01-19T06:30:39.287Z,-4.22
2023-01-19T06:32:42.072Z,-4.44
2023-01-19T06:34:44.845Z,-4.73
2023-01-19T06:36:47.621Z,-4.86
2023-01-19T06:38:50.323Z,-4.78
2023-01-19T06:40:54.851Z,-4.79
2023-01-19T06:42:57.541Z,-4.60
2023-01-19T06:45:01.590Z,-4.37
2023-01-19T06:47:15.164Z,-4.47
2023-01-19T06:49:18.818Z,-4.69
2023-01-19T06:51:21.672Z,-4.43
2023-01-19T06:53:24.345Z,-4.27
2023-01-19T06:55:27.686Z,-4.65
2023-01-19T06:57:30.686Z,-4.72
2023-01-19T06:59:33.649Z,-4.55
2023-01-19T07:01:37.772Z,-4.43
2023-01-19T07:03:40.520Z,-4.35
2023-01-19T07:05:43.249Z,-4.33
2023-01-19T07:07:46.098Z,-4.37
2023-01-19T07:09:48.754Z,-4.37
2023-01-19T07:11:51.415Z,-4.35
2023-01-19T07:13:56.003Z,-4.38
2023-01-19T07:15:58.865Z,-4.57
2023-01-19T07:18:07.480Z,-4.56
2023-01-19T07:20:13.074Z,-4.48
2023-01-19T07:22:15.760Z,-4.48
2023-01-19T07:24:18.459Z,-4.57
2023-01-19T07:26:22.157Z,-4.50
2023-01-19T07:28:24.931Z,-4.60
2023-01-19T07:30:27.874Z,-4.79
2023-01-19T07:32:30.627Z,-4.57
2023-01-19T07:34:35.948Z,-4.63
2023-01-19T07:36:38.971Z,-4.84
2023-01-19T07:38:43.026Z,-4.83
2023-01-19T07:40:46.898Z,-4.88
2023-01-19T07:42:50.623Z,-5.42
2023-01-19T07:44:53.407Z,-5.85
2023-01-19T07:46:56.368Z,-5.05
2023-01-19T07:48:59.071Z,-4.79
2023-01-19T07:51:06.136Z,-4.66
2023-01-19T07:53:11.690Z,-4.81
2023-01-19T07:55:14.482Z,-4.83
2023-01-19T07:57:17.240Z,-4.56
2023-01-19T07:59:19.914Z,-4.56
2023-01-19T08:01:23.673Z,-4.48
2023-01-19T08:03:26.546Z,-4.36
2023-01-19T08:05:29.922Z,-4.17
2023-01-19T08:07:34.324Z,-4.27
2023-01-19T08:09:37.031Z,-4.06
2023-01-19T08:11:40.304Z,-4.04
2023-01-19T08:13:43.240Z,-4.73
2023-01-19T08:15:46.283Z,-3.92
2023-01-19T08:17:55.992Z,-3.95
2023-01-19T08:19:58.919Z,-3.99
2023-01-19T08:22:07.758Z,-4.06
2023-01-19T08:24:21.392Z,-3.99
2023-01-19T08:26:29.719Z,-3.87
2023-01-19T08:28:32.439Z,-3.84
2023-01-19T08:30:35.600Z,-3.78
2023-01-19T08:32:38.282Z,-3.73
2023-01-19T08:34:40.978Z,-3.76
2023-01-19T08:36:43.699Z,-3.70
2023-01-19T08:38:46.679Z,-3.57
2023-01-19T08:40:50.704Z,-3.41
2023-01-19T08:42:53.501Z,-3.32
2023-01-19T08:44:58.820Z,-3.19
2023-01-19T08:47:08.979Z,-3.19
2023-01-19T08:49:11.733Z,-3.27
2023-01-19T08:51:15.230Z,-3.85
2023-01-19T08:53:19.180Z,-4.01
2023-01-19T08:55:21.896Z,-3.34
2023-01-19T08:57:25.920Z,-3.16
2023-01-19T08:59:28.628Z,-3.29
2023-01-19T09:01:31.475Z,-2.83
2023-01-19T09:03:34.358Z,-2.74
2023-01-19T09:05:38.937Z,-2.84
2023-01-19T09:07:42.639Z,-2.53
2023-01-19T09:09:45.290Z,-2.43
2023-01-19T09:11:47.950Z,-2.58
2023-01-19T09:13:52.134Z,-2.34
2023-01-19T09:15:55.314Z,-2.45
2023-01-19T09:17:58.374Z,-2.02
2023-01-19T09:20:01.506Z,-1.98
2023-01-19T09:22:04.314Z,-1.92
2023-01-19T09:24:07.441Z,-2.35
2023-01-19T09:26:11.186Z,-1.86
2023-01-19T09:28:15.988Z,-2.68
2023-01-19T09:30:20.873Z,-2.91
2023-01-19T09:32:23.904Z,-2.93
2023-01-19T09:34:26.668Z,-2.42
2023-01-19T09:36:30.124Z,-2.06
2023-01-19T09:38:33.292Z,-1.89
2023-01-19T09:40:37.421Z,-1.83
2023-01-19T09:42:44.440Z,-1.88
2023-01-19T09:44:48.926Z,-1.66
2023-01-19T09:46:52.948Z,-1.65
2023-01-19T09:48:58.332Z,-2.49
2023-01-19T09:51:03.900Z,-1.62
2023-01-19T09:53:17.215Z,-1.55
2023-01-19T09:55:23.692Z,-2.04
2023-01-19T09:57:27.880Z,-1.50
2023-01-19T09:59:31.883Z,-1.84
2023-01-19T10:01:50.107Z,-1.38
2023-01-19T10:04:10.683Z,-1.29
2023-01-19T10:06:15.328Z,-1.26
2023-01-19T10:08:26.375Z,-1.32
2023-01-19T10:10:31.662Z,-1.26
2023-01-19T10:12:50.995Z,-1.25
2023-01-19T10:15:03.665Z,-1.47
2023-01-19T10:17:19.148Z,-1.24
2023-01-19T10:19:28.535Z,-1.23
2023-01-19T10:21:38.073Z,-1.13
2023-01-19T10:23:44.026Z,-1.00
2023-01-19T10:25:48.020Z,-0.92
2023-01-19T10:27:50.875Z,-1.02
2023-01-19T10:29:53.653Z,-0.95
2023-01-19T10:32:05.004Z,-1.02
2023-01-19T10:34:07.744Z,-0.97
2023-01-19T10:36:20.168Z,-1.10
2023-01-19T10:38:22.945Z,-0.84
2023-01-19T10:40:31.956Z,-0.88
2023-01-19T10:42:41.137Z,-1.07
2023-01-19T10:44:46.935Z,-0.55
2023-01-19T10:46:51.393Z,-0.46
2023-01-19T10:48:56.717Z,-0.27
2023-01-19T10:51:03.729Z,-0.22
2023-01-19T10:53:21.577Z,-0.21
2023-01-19T10:55:28.521Z,-0.23
2023-01-19T10:57:34.477Z,-0.12
2023-01-19T10:59:39.041Z,-0.19
2023-01-19T11:01:41.908Z,-0.26
2023-01-19T11:03:45.137Z,-1.07
2023-01-19T11:05:48.568Z,-0.90
2023-01-19T11:07:51.461Z,-0.50
2023-01-19T11:10:21.122Z,-0.51
2023-01-19T11:12:25.365Z,-0.47
2023-01-19T11:14:32.240Z,-1.01
2023-01-19T11:16:38.080Z,0.27
2023-01-19T11:18:42.065Z,0.62
2023-01-19T11:20:51.784Z,0.92
2023-01-19T11:23:06.110Z,1.18
2023-01-19T11:25:27.099Z,1.16
2023-01-19T11:27:32.429Z,0.72
2023-01-19T11:29:35.393Z,1.26
2023-01-19T11:31:38.171Z,1.08
2023-01-19T11:33:44.223Z,0.94
2023-01-19T11:35:47.211Z,1.44
2023-01-19T11:37:50.063Z,1.37
2023-01-19T11:39:54.522Z,1.46
2023-01-19T11:42:02.143Z,1.63
2023-01-19T11:44:17.116Z,1.71
2023-01-19T11:46:21.518Z,1.13
2023-01-19T11:48:30.915Z,1.46
2023-01-19T11:50:37.528Z,1.28
2023-01-19T11:52:45.627Z,1.54
2023-01-19T11:54:55.661Z,1.57
2023-01-19T11:57:02.221Z,1.66
2023-01-19T11:59:05.228Z,1.82
2023-01-19T12:01:17.347Z,2.12
2023-01-19T12:03:24.686Z,1.87
2023-01-19T12:05:32.719Z,2.09
2023-01-19T12:07:37.446Z,0.93
2023-01-19T12:09:44.259Z,1.53
2023-01-19T12:11:51.937Z,1.56
2023-01-19T12:13:56.118Z,1.36
2023-01-19T12:16:02.236Z,1.20
2023-01-19T12:18:07.842Z,1.32
2023-01-19T12:20:25.978Z,1.31
2023-01-19T12:22:30.285Z,1.33
2023-01-19T12:24:38.224Z,1.40
2023-01-19T12:26:49.773Z,1.44
2023-01-19T12:28:54.209Z,0.92
2023-01-19T12:30:59.675Z,1.77
2023-01-19T12:33:21.640Z,1.78
2023-01-19T12:35:56.333Z,1.84
2023-01-19T12:37:59.020Z,1.77
2023-01-19T12:40:05.485Z,1.77
2023-01-19T12:42:14.620Z,1.40
2023-01-19T12:44:27.732Z,1.74
2023-01-19T12:46:32.536Z,1.77
2023-01-19T12:48:35.323Z,1.43
2023-01-19T12:50:39.789Z,1.53
2023-01-19T12:52:51.376Z,1.66
2023-01-19T12:54:59.543Z,1.58
2023-01-19T12:57:05.848Z,1.50
2023-01-19T12:59:21.073Z,1.52
2023-01-19T13:01:24.883Z,1.26
2023-01-19T13:04:06.638Z,1.48
2023-01-19T13:06:09.599Z,1.43
2023-01-19T13:08:26.113Z,1.38
2023-01-19T13:10:54.050Z,1.37
2023-01-19T13:13:19.599Z,1.24
2023-01-19T13:15:36.399Z,0.72
2023-01-19T13:17:50.200Z,1.27
2023-01-19T13:20:06.796Z,1.18
2023-01-19T13:22:58.041Z,1.16
2023-01-19T13:25:09.473Z,1.19
2023-01-19T13:27:14.185Z,1.24
2023-01-19T13:29:22.033Z,1.31
2023-01-19T13:31:26.063Z,0.90
2023-01-19T13:33:38.040Z,0.96
2023-01-19T13:35:52.252Z,1.13
2023-01-19T13:37:55.092Z,1.14
2023-01-19T13:39:58.257Z,1.15
2023-01-19T13:42:03.687Z,1.07
2023-01-19T13:44:13.875Z,1.14
2023-01-19T13:46:17.387Z,1.20
2023-01-19T13:48:23.142Z,0.91
2023-01-19T13:50:27.220Z,1.21
2023-01-19T13:52:31.880Z,1.24
2023-01-19T13:54:34.715Z,1.26
2023-01-19T13:56:37.428Z,1.25
2023-01-19T13:58:40.183Z,1.19
2023-01-19T14:00:47.211Z,1.19
2023-01-19T14:02:56.993Z,1.14
2023-01-19T14:04:59.799Z,1.11
2023-01-19T14:07:05.821Z,1.10
2023-01-19T14:09:20.627Z,1.05
2023-01-19T14:11:23.381Z,1.07
2023-01-19T14:13:29.584Z,1.11
2023-01-19T14:15:34.860Z,1.02
2023-01-19T14:17:37.697Z,1.02
2023-01-19T14:19:50.050Z,1.03
2023-01-19T14:22:00.727Z,1.04
2023-01-19T14:24:09.584Z,1.00
2023-01-19T14:26:56.280Z,1.00
2023-01-19T14:29:08.883Z,0.99
2023-01-19T14:31:22.562Z,1.06
2023-01-19T14:33:35.820Z,1.05
2023-01-19T14:35:38.597Z,1.03
2023-01-19T14:37:47.990Z,1.06
2023-01-19T14:39:53.304Z,0.64
2023-01-19T14:41:58.905Z,0.70
2023-01-19T14:44:03.525Z,1.00
2023-01-19T14:46:06.273Z,1.02
2023-01-19T14:48:18.306Z,1.02
2023-01-19T14:50:25.463Z,0.94
2023-01-19T14:52:31.103Z,0.65
2023-01-19T14:54:37.030Z,0.76
2023-01-19T14:56:39.746Z,0.75
2023-01-19T14:58:42.467Z,0.91
2023-01-19T15:00:48.174Z,0.71
2023-01-19T15:02:50.933Z,0.87
2023-01-19T15:04:55.417Z,0.81
2023-01-19T15:06:58.418Z,0.21
2023-01-19T15:09:01.155Z,0.84
2023-01-19T15:11:10.717Z,0.77
2023-01-19T15:13:19.343Z,0.76
2023-01-19T15:15:25.917Z,0.82
2023-01-19T15:17:30.026Z,0.82
2023-01-19T15:19:32.693Z,0.71
2023-01-19T15:21:35.401Z,0.81
2023-01-19T15:23:38.102Z,0.63
2023-01-19T15:25:41.025Z,0.74
2023-01-19T15:27:44.066Z,0.70
2023-01-19T15:29:46.808Z,0.70
2023-01-19T15:31:49.715Z,0.66
2023-01-19T15:33:53.959Z,0.69
2023-01-19T15:35:56.796Z,0.29
2023-01-19T15:37:59.518Z,0.58
2023-01-19T15:40:02.223Z,0.61
2023-01-19T15:42:04.943Z,0.56
2023-01-19T15:44:09.114Z,0.21
2023-01-19T15:46:15.507Z,0.49
2023-01-19T15:48:19.906Z,0.49
2023-01-19T15:50:25.638Z,0.49
2023-01-19T15:52:28.302Z,0.31
2023-01-19T15:54:31.207Z,0.50
2023-01-19T15:56:33.931Z,0.51
2023-01-19T15:58:36.676Z,0.48
2023-01-19T16:00:39.462Z,0.50
2023-01-19T16:02:42.412Z,-0.28
2023-01-19T16:04:49.393Z,0.40
2023-01-19T16:06:53.481Z,0.48
2023-01-19T16:08:59.703Z,0.51
2023-01-19T16:11:05.988Z,0.47
2023-01-19T16:13:09.460Z,0.43
2023-01-19T16:15:12.773Z,0.31
2023-01-19T16:17:15.481Z,0.39
2023-01-19T16:19:19.158Z,0.25
2023-01-19T16:21:22.124Z,0.25
2023-01-19T16:23:26.549Z,0.20
2023-01-19T16:25:30.934Z,0.35
2023-01-19T16:27:33.676Z,0.34
2023-01-19T16:29:36.378Z,0.34
2023-01-19T16:31:40.272Z,0.31
2023-01-19T16:33:43.746Z,0.39
2023-01-19T16:35:46.600Z,0.25
2023-01-19T16:37:52.214Z,0.26
2023-01-19T16:39:56.317Z,0.24
2023-01-19T16:41:59.139Z,-0.20
2023-01-19T16:44:02.311Z,0.25
2023-01-19T16:46:05.142Z,0.25
2023-01-19T16:48:08.152Z,0.28
2023-01-19T16:50:12.550Z,0.28
2023-01-19T16:52:15.666Z,0.20
2023-01-19T16:54:20.727Z,-0.07
2023-01-19T16:56:25.220Z,0.07
2023-01-19T16:58:27.911Z,0.18
2023-01-19T17:00:30.574Z,0.19
2023-01-19T17:02:33.373Z,0.24
2023-01-19T17:04:36.281Z,0.11
2023-01-19T17:06:39.311Z,0.28
2023-01-19T17:08:42.395Z,0.09
2023-01-19T17:10:45.079Z,-0.17
2023-01-19T17:12:49.138Z,-0.05
2023-01-19T17:14:51.791Z,0.13
2023-01-19T17:16:54.502Z,0.18
2023-01-19T17:18:58.536Z,0.19
2023-01-19T17:21:02.602Z,0.20
2023-01-19T17:23:05.265Z,0.21
2023-01-19T17:25:09.024Z,0.21
2023-01-19T17:27:11.806Z,0.16
2023-01-19T17:29:16.615Z,0.25
2023-01-19T17:31:21.219Z,0.08
2023-01-19T17:33:25.430Z,-0.08
2023-01-19T17:35:28.132Z,0.11
2023-01-19T17:37:30.782Z,-0.34
2023-01-19T17:39:33.465Z,-0.27
2023-01-19T17:41:37.001Z,-0.19
2023-01-19T17:43:39.638Z,-0.02
2023-01-19T17:45:43.747Z,0.09
2023-01-19T17:47:50.097Z,-0.41
2023-01-19T17:49:52.797Z,-0.07
2023-01-19T17:51:55.802Z,-0.17
2023-01-19T17:53:59.350Z,-0.44
2023-01-19T17:56:04.779Z,-0.08
2023-01-19T17:58:07.424Z,0.10
2023-01-19T18:00:11.664Z,0.10
2023-01-19T18:02:19.047Z,0.26
2023-01-19T18:04:21.805Z,0.30
2023-01-19T18:06:24.851Z,0.39
2023-01-19T18:08:27.583Z,0.10
2023-01-19T18:10:30.236Z,0.46
2023-01-19T18:12:33.256Z,0.23
2023-01-19T18:14:35.936Z,-0.20
2023-01-19T18:16:38.647Z,0.30
2023-01-19T18:18:44.029Z,0.39
2023-01-19T18:20:46.725Z,0.47
2023-01-19T18:22:49.383Z,0.50
2023-01-19T18:24:52.227Z,0.52
2023-01-19T18:26:55.774Z,0.49
2023-01-19T18:28:59.513Z,0.55
2023-01-19T18:31:02.742Z,0.54
2023-01-19T18:33:06.236Z,-0.02
2023-01-19T18:35:10.942Z,0.40
2023-01-19T18:37:13.668Z,0.36
2023-01-19T18:39:16.401Z,-0.15
2023-01-19T18:41:20.621Z,0.40
2023-01-19T18:43:23.305Z,0.48
2023-01-19T18:45:26.080Z,0.51
2023-01-19T18:47:28.813Z,0.47
2023-01-19T18:49:31.481Z,0.40
2023-01-19T18:51:36.644Z,0.50
2023-01-19T18:53:39.497Z,0.54
2023-01-19T18:55:51.960Z,0.48
2023-01-19T18:57:54.880Z,0.33
2023-01-19T18:59:57.573Z,0.37
2023-01-19T19:02:01.457Z,-0.20
2023-01-19T19:04:04.290Z,-0.16
2023-01-19T19:06:07.428Z,0.03
2023-01-19T19:08:11.590Z,0.16
2023-01-19T19:10:14.710Z,0.19
2023-01-19T19:12:17.807Z,0.17
2023-01-19T19:14:20.478Z,0.03
2023-01-19T19:16:23.265Z,-0.14
2023-01-19T19:18:26.178Z,0.03
2023-01-19T19:20:28.806Z,0.05
2023-01-19T19:22:32.412Z,0.00
2023-01-19T19:24:36.425Z,-0.01
2023-01-19T19:26:39.102Z,-0.25
2023-01-19T19:28:42.172Z,0.08
2023-01-19T19:30:44.887Z,-0.10
2023-01-19T19:32:52.988Z,-0.16
2023-01-19T19:34:58.062Z,-0.26
2023-01-19T19:37:01.406Z,-0.24
2023-01-19T19:39:04.244Z,-0.15
2023-01-19T19:41:09.595Z,-0.55
2023-01-19T19:43:12.751Z,-0.14
2023-01-19T19:45:16.596Z,-0.36
2023-01-19T19:47:19.702Z,-0.34
2023-01-19T19:49:22.351Z,-0.40
2023-01-19T19:51:27.070Z,-0.36
2023-01-19T19:53:29.777Z,-0.15
2023-01-19T19:55:32.434Z,0.01
2023-01-19T19:57:36.933Z,0.04
2023-01-19T19:59:39.579Z,-0.37
2023-01-19T20:01:43.798Z,-0.25
2023-01-19T20:03:46.751Z,-0.24
2023-01-19T20:05:49.422Z,-0.01
2023-01-19T20:07:52.100Z,0.09
2023-01-19T20:09:55.014Z,-0.21
2023-01-19T20:11:57.739Z,-0.25
2023-01-19T20:14:05.755Z,0.00
2023-01-19T20:16:11.120Z,0.12
2023-01-19T20:18:14.281Z,0.22
2023-01-19T20:20:17.267Z,0.22
2023-01-19T20:22:19.945Z,0.24
2023-01-19T20:24:22.587Z,0.18
2023-01-19T20:26:27.448Z,0.27
2023-01-19T20:28:30.062Z,-0.05
2023-01-19T20:30:34.213Z,-0.07
2023-01-19T20:32:40.073Z,-0.02
2023-01-19T20:34:42.741Z,-0.13
2023-01-19T20:36:49.447Z,-0.01
2023-01-19T20:38:52.925Z,-0.06
2023-01-19T20:40:55.594Z,-0.05
2023-01-19T20:42:58.229Z,-0.26
2023-01-19T20:45:00.875Z,-0.43
2023-01-19T20:47:06.659Z,-0.53
2023-01-19T20:49:10.142Z,-0.32
2023-01-19T20:51:14.312Z,-0.21
2023-01-19T20:53:17.481Z,-0.10
2023-01-19T20:55:20.213Z,-0.20
2023-01-19T20:57:22.878Z,0.05
2023-01-19T20:59:25.624Z,0.10
2023-01-19T21:01:28.372Z,0.14
2023-01-19T21:03:34.737Z,0.17
2023-01-19T21:05:37.783Z,0.12
2023-01-19T21:07:40.675Z,0.24
2023-01-19T21:09:43.409Z,0.24
2023-01-19T21:11:46.085Z,0.08
2023-01-19T21:13:50.523Z,-0.25
2023-01-19T21:15:53.347Z,0.05
2023-01-19T21:17:57.276Z,0.08
2023-01-19T21:20:01.290Z,-0.08
2023-01-19T21:22:04.046Z,-0.44
2023-01-19T21:24:07.142Z,-0.54
2023-01-19T21:26:09.805Z,-0.60
2023-01-19T21:28:12.428Z,-0.70
2023-01-19T21:30:15.506Z,-0.36
2023-01-19T21:32:18.199Z,-0.35
2023-01-19T21:34:20.860Z,-0.22
2023-01-19T21:36:25.304Z,-0.60
2023-01-19T21:38:29.696Z,-0.26
2023-01-19T21:40:32.342Z,-0.16
2023-01-19T21:42:35.003Z,-0.10
2023-01-19T21:44:37.718Z,-0.03
2023-01-19T21:46:40.796Z,-0.05
2023-01-19T21:48:43.756Z,-0.17
2023-01-19T21:50:46.755Z,-0.27
2023-01-19T21:52:50.760Z,-0.41
2023-01-19T21:54:53.393Z,-0.36
2023-01-19T21:56:56.049Z,-0.26
2023-01-19T21:59:02.153Z,-1.05
2023-01-19T22:01:07.280Z,-0.62
2023-01-19T22:03:10.162Z,-0.42
2023-01-19T22:05:13.125Z,-0.31
2023-01-19T22:07:16.025Z,-0.30
2023-01-19T22:09:20.107Z,-0.27
2023-01-19T22:11:23.540Z,-0.18
2023-01-19T22:13:26.263Z,-0.14
2023-01-19T22:15:29.042Z,-0.10
2023-01-19T22:17:31.776Z,-0.09
2023-01-19T22:19:34.481Z,-0.48
2023-01-19T22:21:37.173Z,-0.55
2023-01-19T22:23:40.326Z,-0.38
2023-01-19T22:25:44.303Z,-0.29
2023-01-19T22:27:46.977Z,-0.30
2023-01-19T22:29:49.595Z,-0.55
2023-01-19T22:31:52.467Z,-0.71
2023-01-19T22:33:56.189Z,-0.67
2023-01-19T22:36:11.034Z,-0.70
2023-01-19T22:38:13.655Z,-0.87
2023-01-19T22:40:16.884Z,-0.71
2023-01-19T22:42:20.931Z,-0.61
2023-01-19T22:44:23.975Z,-0.68
2023-01-19T22:46:28.727Z,-0.55
2023-01-19T22:48:31.883Z,-0.52
2023-01-19T22:50:36.160Z,-0.85
2023-01-19T22:52:38.910Z,-1.22
2023-01-19T22:54:41.754Z,-1.21
2023-01-19T22:56:45.702Z,-0.95
2023-01-19T22:58:50.553Z,-0.85
2023-01-19T23:00:53.338Z,-0.82
2023-01-19T23:02:56.048Z,-1.12
2023-01-19T23:04:58.768Z,-0.91
2023-01-19T23:07:01.479Z,-0.83
2023-01-19T23:09:07.296Z,-0.91
2023-01-19T23:11:12.645Z,-1.23
2023-01-19T23:13:15.338Z,-1.20
2023-01-19T23:15:19.431Z,-1.70
2023-01-19T23:17:22.157Z,-1.73
2023-01-19T23:19:24.929Z,-1.77
2023-01-19T23:21:29.499Z,-2.29
2023-01-19T23:23:33.045Z,-2.20
2023-01-19T23:25:35.757Z,-2.23
2023-01-19T23:27:38.536Z,-1.59
2023-01-19T23:29:41.244Z,-1.75
2023-01-19T23:31:47.105Z,-2.00
2023-01-19T23:33:50.819Z,-2.00
2023-01-19T23:35:55.835Z,-1.56
2023-01-19T23:37:58.827Z,-1.37
2023-01-19T23:40:01.560Z,-1.45
2023-01-19T23:42:05.078Z,-1.46
2023-01-19T23:44:07.867Z,-1.60
2023-01-19T23:46:11.467Z,-1.77
2023-01-19T23:48:15.532Z,-1.41
2023-01-19T23:50:18.821Z,-1.42
2023-01-19T23:52:21.601Z,-1.37
2023-01-19T23:54:24.399Z,-1.68
2023-01-19T23:56:29.575Z,-1.16
2023-01-19T23:58:32.339Z,-1.15
